sensor_id;sensor_type;location;lat;lon;timestamp;P1;durP1;ratioP1;P2;durP2;ratioP2
72139;SDS011;60018;49.688;19.180;2022-12-24T00:02:15;1.23;;;1.23;;
72139;SDS011;60018;49.688;19.180;2022-12-24T00:04:41;1.03;;;1.03;;
72139;SDS011;60018;49.688;19.180;2022-12-24T00:07:06;1.40;;;1.30;;
72139;SDS011;60018;49.688;19.180;2022-12-24T00:09:32;0.97;;;0.97;;
72139;SDS011;60018;49.688;19.180;2022-12-24T00:11:57;0.83;;;0.83;;
72139;SDS011;60018;49.688;19.180;2022-12-24T00:14:23;0.97;;;0.97;;
72139;SDS011;60018;49.688;19.180;2022-12-24T00:16:50;1.23;;;1.23;;
72139;SDS011;60018;49.688;19.180;2022-12-24T00:19:15;1.33;;;1.33;;
72139;SDS011;60018;49.688;19.180;2022-12-24T00:21:41;1.03;;;1.03;;
72139;SDS011;60018;49.688;19.180;2022-12-24T00:24:06;1.13;;;1.13;;
72139;SDS011;60018;49.688;19.180;2022-12-24T00:26:32;1.17;;;1.17;;
72139;SDS011;60018;49.688;19.180;2022-12-24T00:28:58;1.40;;;1.33;;
72139;SDS011;60018;49.688;19.180;2022-12-24T00:31:23;1.17;;;1.17;;
72139;SDS011;60018;49.688;19.180;2022-12-24T00:33:50;1.27;;;1.27;;
72139;SDS011;60018;49.688;19.180;2022-12-24T00:36:17;1.27;;;1.23;;
72139;SDS011;60018;49.688;19.180;2022-12-24T00:38:43;1.20;;;1.20;;
72139;SDS011;60018;49.688;19.180;2022-12-24T00:41:08;1.23;;;1.23;;
72139;SDS011;60018;49.688;19.180;2022-12-24T00:43:34;0.87;;;0.87;;
72139;SDS011;60018;49.688;19.180;2022-12-24T00:46:00;1.23;;;1.23;;
72139;SDS011;60018;49.688;19.180;2022-12-24T00:48:25;1.60;;;1.50;;
72139;SDS011;60018;49.688;19.180;2022-12-24T00:50:52;0.97;;;0.97;;
72139;SDS011;60018;49.688;19.180;2022-12-24T00:53:17;1.03;;;1.03;;
72139;SDS011;60018;49.688;19.180;2022-12-24T00:55:43;1.10;;;1.10;;
72139;SDS011;60018;49.688;19.180;2022-12-24T00:58:08;1.33;;;1.23;;
72139;SDS011;60018;49.688;19.180;2022-12-24T01:00:34;1.03;;;1.03;;
72139;SDS011;60018;49.688;19.180;2022-12-24T01:02:59;1.43;;;1.33;;
72139;SDS011;60018;49.688;19.180;2022-12-24T01:05:25;1.17;;;1.17;;
72139;SDS011;60018;49.688;19.180;2022-12-24T01:07:51;1.27;;;1.23;;
72139;SDS011;60018;49.688;19.180;2022-12-24T01:10:17;1.23;;;1.23;;
72139;SDS011;60018;49.688;19.180;2022-12-24T01:12:44;1.37;;;1.27;;
72139;SDS011;60018;49.688;19.180;2022-12-24T01:15:12;1.33;;;1.33;;
72139;SDS011;60018;49.688;19.180;2022-12-24T01:17:38;1.27;;;1.23;;
72139;SDS011;60018;49.688;19.180;2022-12-24T01:20:05;1.07;;;1.07;;
72139;SDS011;60018;49.688;19.180;2022-12-24T01:22:32;1.37;;;1.27;;
72139;SDS011;60018;49.688;19.180;2022-12-24T01:24:59;1.07;;;1.07;;
72139;SDS011;60018;49.688;19.180;2022-12-24T01:27:24;1.43;;;1.33;;
72139;SDS011;60018;49.688;19.180;2022-12-24T01:29:50;1.23;;;1.23;;
72139;SDS011;60018;49.688;19.180;2022-12-24T01:32:15;1.33;;;1.33;;
72139;SDS011;60018;49.688;19.180;2022-12-24T01:34:41;1.30;;;1.23;;
72139;SDS011;60018;49.688;19.180;2022-12-24T01:37:06;1.07;;;1.07;;
72139;SDS011;60018;49.688;19.180;2022-12-24T01:39:32;1.37;;;1.27;;
72139;SDS011;60018;49.688;19.180;2022-12-24T01:41:58;1.43;;;1.33;;
72139;SDS011;60018;49.688;19.180;2022-12-24T01:44:24;1.10;;;1.10;;
72139;SDS011;60018;49.688;19.180;2022-12-24T01:46:52;1.03;;;1.03;;
72139;SDS011;60018;49.688;19.180;2022-12-24T01:49:19;1.43;;;1.33;;
72139;SDS011;60018;49.688;19.180;2022-12-24T01:51:45;0.97;;;0.97;;
72139;SDS011;60018;49.688;19.180;2022-12-24T01:54:14;0.97;;;0.97;;
72139;SDS011;60018;49.688;19.180;2022-12-24T01:56:42;1.43;;;1.33;;
72139;SDS011;60018;49.688;19.180;2022-12-24T01:59:11;1.37;;;1.27;;
72139;SDS011;60018;49.688;19.180;2022-12-24T02:01:39;1.30;;;1.23;;
72139;SDS011;60018;49.688;19.180;2022-12-24T02:04:07;1.43;;;1.33;;
72139;SDS011;60018;49.688;19.180;2022-12-24T02:06:36;1.43;;;1.33;;
72139;SDS011;60018;49.688;19.180;2022-12-24T02:09:02;1.23;;;1.23;;
72139;SDS011;60018;49.688;19.180;2022-12-24T02:11:27;1.13;;;1.13;;
72139;SDS011;60018;49.688;19.180;2022-12-24T02:13:54;1.37;;;1.27;;
72139;SDS011;60018;49.688;19.180;2022-12-24T02:16:26;1.47;;;1.37;;
72139;SDS011;60018;49.688;19.180;2022-12-24T02:18:58;1.47;;;1.37;;
72139;SDS011;60018;49.688;19.180;2022-12-24T02:21:43;1.40;;;1.30;;
72139;SDS011;60018;49.688;19.180;2022-12-24T02:27:13;1.23;;;1.13;;
72139;SDS011;60018;49.688;19.180;2022-12-24T02:32:35;1.43;;;1.33;;
72139;SDS011;60018;49.688;19.180;2022-12-24T02:35:08;1.47;;;1.37;;
72139;SDS011;60018;49.688;19.180;2022-12-24T02:37:35;1.13;;;1.13;;
72139;SDS011;60018;49.688;19.180;2022-12-24T02:40:03;1.40;;;1.30;;
72139;SDS011;60018;49.688;19.180;2022-12-24T02:42:34;1.43;;;1.33;;
72139;SDS011;60018;49.688;19.180;2022-12-24T02:45:02;1.13;;;1.13;;
72139;SDS011;60018;49.688;19.180;2022-12-24T02:47:30;1.13;;;1.13;;
72139;SDS011;60018;49.688;19.180;2022-12-24T02:49:56;1.37;;;1.27;;
72139;SDS011;60018;49.688;19.180;2022-12-24T02:52:28;1.07;;;1.07;;
72139;SDS011;60018;49.688;19.180;2022-12-24T02:54:55;1.47;;;1.37;;
72139;SDS011;60018;49.688;19.180;2022-12-24T02:57:23;1.53;;;1.43;;
72139;SDS011;60018;49.688;19.180;2022-12-24T02:59:57;1.37;;;1.27;;
72139;SDS011;60018;49.688;19.180;2022-12-24T03:02:26;1.33;;;1.15;;
72139;SDS011;60018;49.688;19.180;2022-12-24T03:05:03;1.47;;;1.37;;
72139;SDS011;60018;49.688;19.180;2022-12-24T03:07:34;1.38;;;1.27;;
72139;SDS011;60018;49.688;19.180;2022-12-24T03:10:05;1.10;;;1.10;;
72139;SDS011;60018;49.688;19.180;2022-12-24T03:12:38;1.43;;;1.33;;
72139;SDS011;60018;49.688;19.180;2022-12-24T03:15:06;1.03;;;1.03;;
72139;SDS011;60018;49.688;19.180;2022-12-24T03:17:35;1.13;;;1.13;;
72139;SDS011;60018;49.688;19.180;2022-12-24T03:20:02;1.33;;;1.23;;
72139;SDS011;60018;49.688;19.180;2022-12-24T03:22:28;1.03;;;1.03;;
72139;SDS011;60018;49.688;19.180;2022-12-24T03:24:54;1.43;;;1.33;;
72139;SDS011;60018;49.688;19.180;2022-12-24T03:27:20;1.37;;;1.27;;
72139;SDS011;60018;49.688;19.180;2022-12-24T03:29:45;1.43;;;1.33;;
72139;SDS011;60018;49.688;19.180;2022-12-24T03:32:11;1.33;;;1.23;;
72139;SDS011;60018;49.688;19.180;2022-12-24T03:34:37;1.40;;;1.30;;
72139;SDS011;60018;49.688;19.180;2022-12-24T03:37:03;1.17;;;1.17;;
72139;SDS011;60018;49.688;19.180;2022-12-24T03:39:28;1.17;;;1.07;;
72139;SDS011;60018;49.688;19.180;2022-12-24T03:41:54;1.33;;;1.23;;
72139;SDS011;60018;49.688;19.180;2022-12-24T03:44:19;1.37;;;1.27;;
72139;SDS011;60018;49.688;19.180;2022-12-24T03:46:45;1.40;;;1.30;;
72139;SDS011;60018;49.688;19.180;2022-12-24T03:49:10;1.40;;;1.30;;
72139;SDS011;60018;49.688;19.180;2022-12-24T03:51:37;1.33;;;1.23;;
72139;SDS011;60018;49.688;19.180;2022-12-24T03:54:02;1.00;;;1.00;;
72139;SDS011;60018;49.688;19.180;2022-12-24T03:56:28;1.37;;;1.27;;
72139;SDS011;60018;49.688;19.180;2022-12-24T03:58:53;1.33;;;1.23;;
72139;SDS011;60018;49.688;19.180;2022-12-24T04:01:19;1.33;;;1.23;;
72139;SDS011;60018;49.688;19.180;2022-12-24T04:03:44;1.37;;;1.27;;
72139;SDS011;60018;49.688;19.180;2022-12-24T04:06:11;1.33;;;1.23;;
72139;SDS011;60018;49.688;19.180;2022-12-24T04:08:39;1.03;;;1.03;;
72139;SDS011;60018;49.688;19.180;2022-12-24T04:11:05;1.20;;;1.17;;
72139;SDS011;60018;49.688;19.180;2022-12-24T04:13:31;1.03;;;1.03;;
72139;SDS011;60018;49.688;19.180;2022-12-24T04:15:57;1.37;;;1.27;;
72139;SDS011;60018;49.688;19.180;2022-12-24T04:18:23;1.17;;;1.17;;
72139;SDS011;60018;49.688;19.180;2022-12-24T04:20:49;1.03;;;1.03;;
72139;SDS011;60018;49.688;19.180;2022-12-24T04:23:14;1.20;;;1.10;;
72139;SDS011;60018;49.688;19.180;2022-12-24T04:25:41;1.43;;;1.33;;
72139;SDS011;60018;49.688;19.180;2022-12-24T04:28:06;1.30;;;1.20;;
72139;SDS011;60018;49.688;19.180;2022-12-24T04:30:32;1.37;;;1.27;;
72139;SDS011;60018;49.688;19.180;2022-12-24T04:32:57;1.27;;;1.17;;
72139;SDS011;60018;49.688;19.180;2022-12-24T04:35:23;1.33;;;1.23;;
72139;SDS011;60018;49.688;19.180;2022-12-24T04:37:48;1.07;;;1.07;;
72139;SDS011;60018;49.688;19.180;2022-12-24T04:40:14;1.43;;;1.33;;
72139;SDS011;60018;49.688;19.180;2022-12-24T04:42:40;1.43;;;1.33;;
72139;SDS011;60018;49.688;19.180;2022-12-24T04:45:06;1.37;;;1.27;;
72139;SDS011;60018;49.688;19.180;2022-12-24T04:47:33;1.47;;;1.37;;
72139;SDS011;60018;49.688;19.180;2022-12-24T04:49:58;1.33;;;1.23;;
72139;SDS011;60018;49.688;19.180;2022-12-24T04:52:23;1.37;;;1.27;;
72139;SDS011;60018;49.688;19.180;2022-12-24T04:54:49;1.43;;;1.33;;
72139;SDS011;60018;49.688;19.180;2022-12-24T04:57:14;1.13;;;1.13;;
72139;SDS011;60018;49.688;19.180;2022-12-24T04:59:41;1.33;;;1.23;;
72139;SDS011;60018;49.688;19.180;2022-12-24T05:02:06;1.07;;;1.07;;
72139;SDS011;60018;49.688;19.180;2022-12-24T05:04:32;1.33;;;1.23;;
72139;SDS011;60018;49.688;19.180;2022-12-24T05:06:57;1.33;;;1.23;;
72139;SDS011;60018;49.688;19.180;2022-12-24T05:09:23;1.10;;;1.10;;
72139;SDS011;60018;49.688;19.180;2022-12-24T05:11:48;1.40;;;1.30;;
72139;SDS011;60018;49.688;19.180;2022-12-24T05:14:14;1.37;;;1.27;;
72139;SDS011;60018;49.688;19.180;2022-12-24T05:16:40;1.03;;;1.03;;
72139;SDS011;60018;49.688;19.180;2022-12-24T05:19:06;1.17;;;1.07;;
72139;SDS011;60018;49.688;19.180;2022-12-24T05:21:31;1.37;;;1.27;;
72139;SDS011;60018;49.688;19.180;2022-12-24T05:23:57;1.33;;;1.23;;
72139;SDS011;60018;49.688;19.180;2022-12-24T05:26:25;1.43;;;1.33;;
72139;SDS011;60018;49.688;19.180;2022-12-24T05:28:52;1.37;;;1.27;;
72139;SDS011;60018;49.688;19.180;2022-12-24T05:31:19;1.40;;;1.30;;
72139;SDS011;60018;49.688;19.180;2022-12-24T05:33:46;1.13;;;1.13;;
72139;SDS011;60018;49.688;19.180;2022-12-24T05:36:12;1.43;;;1.33;;
72139;SDS011;60018;49.688;19.180;2022-12-24T05:38:38;1.03;;;1.03;;
72139;SDS011;60018;49.688;19.180;2022-12-24T05:41:03;1.33;;;1.23;;
72139;SDS011;60018;49.688;19.180;2022-12-24T05:43:29;1.43;;;1.33;;
72139;SDS011;60018;49.688;19.180;2022-12-24T05:45:56;1.50;;;1.40;;
72139;SDS011;60018;49.688;19.180;2022-12-24T05:48:22;1.63;;;1.53;;
72139;SDS011;60018;49.688;19.180;2022-12-24T05:50:49;1.47;;;1.37;;
72139;SDS011;60018;49.688;19.180;2022-12-24T05:53:14;1.47;;;1.37;;
72139;SDS011;60018;49.688;19.180;2022-12-24T05:55:40;1.43;;;1.33;;
72139;SDS011;60018;49.688;19.180;2022-12-24T05:58:05;1.37;;;1.27;;
72139;SDS011;60018;49.688;19.180;2022-12-24T06:00:31;1.37;;;1.27;;
72139;SDS011;60018;49.688;19.180;2022-12-24T06:02:56;1.53;;;1.43;;
72139;SDS011;60018;49.688;19.180;2022-12-24T06:05:22;1.43;;;1.33;;
72139;SDS011;60018;49.688;19.180;2022-12-24T06:07:49;1.47;;;1.37;;
72139;SDS011;60018;49.688;19.180;2022-12-24T06:10:14;1.43;;;1.33;;
72139;SDS011;60018;49.688;19.180;2022-12-24T06:12:39;1.37;;;1.27;;
72139;SDS011;60018;49.688;19.180;2022-12-24T06:15:05;1.43;;;1.33;;
72139;SDS011;60018;49.688;19.180;2022-12-24T06:17:31;1.43;;;1.33;;
72139;SDS011;60018;49.688;19.180;2022-12-24T06:19:57;1.47;;;1.37;;
72139;SDS011;60018;49.688;19.180;2022-12-24T06:22:22;1.50;;;1.40;;
72139;SDS011;60018;49.688;19.180;2022-12-24T06:24:49;1.33;;;1.23;;
72139;SDS011;60018;49.688;19.180;2022-12-24T06:27:15;1.53;;;1.43;;
72139;SDS011;60018;49.688;19.180;2022-12-24T06:29:40;1.43;;;1.33;;
72139;SDS011;60018;49.688;19.180;2022-12-24T06:32:05;1.47;;;1.37;;
72139;SDS011;60018;49.688;19.180;2022-12-24T06:34:31;1.43;;;1.33;;
72139;SDS011;60018;49.688;19.180;2022-12-24T06:36:56;1.57;;;1.47;;
72139;SDS011;60018;49.688;19.180;2022-12-24T06:39:22;1.30;;;1.27;;
72139;SDS011;60018;49.688;19.180;2022-12-24T06:41:49;1.53;;;1.43;;
72139;SDS011;60018;49.688;19.180;2022-12-24T06:44:14;1.47;;;1.37;;
72139;SDS011;60018;49.688;19.180;2022-12-24T06:46:39;1.03;;;1.03;;
72139;SDS011;60018;49.688;19.180;2022-12-24T06:49:05;1.50;;;1.37;;
72139;SDS011;60018;49.688;19.180;2022-12-24T06:51:30;1.53;;;1.43;;
72139;SDS011;60018;49.688;19.180;2022-12-24T06:53:56;1.33;;;1.23;;
72139;SDS011;60018;49.688;19.180;2022-12-24T06:56:21;1.50;;;1.37;;
72139;SDS011;60018;49.688;19.180;2022-12-24T06:58:48;1.33;;;1.17;;
72139;SDS011;60018;49.688;19.180;2022-12-24T07:01:14;1.53;;;1.37;;
72139;SDS011;60018;49.688;19.180;2022-12-24T07:03:40;1.43;;;1.33;;
72139;SDS011;60018;49.688;19.180;2022-12-24T07:06:14;1.20;;;1.20;;
72139;SDS011;60018;49.688;19.180;2022-12-24T07:08:41;1.37;;;1.27;;
72139;SDS011;60018;49.688;19.180;2022-12-24T07:11:07;1.37;;;1.27;;
72139;SDS011;60018;49.688;19.180;2022-12-24T07:13:32;1.53;;;1.43;;
72139;SDS011;60018;49.688;19.180;2022-12-24T07:16:00;1.43;;;1.33;;
72139;SDS011;60018;49.688;19.180;2022-12-24T07:18:26;1.23;;;1.13;;
72139;SDS011;60018;49.688;19.180;2022-12-24T07:20:52;1.20;;;1.10;;
72139;SDS011;60018;49.688;19.180;2022-12-24T07:23:17;1.53;;;1.43;;
72139;SDS011;60018;49.688;19.180;2022-12-24T07:25:42;1.27;;;1.17;;
72139;SDS011;60018;49.688;19.180;2022-12-24T07:28:08;1.23;;;1.13;;
72139;SDS011;60018;49.688;19.180;2022-12-24T07:30:33;1.47;;;1.37;;
72139;SDS011;60018;49.688;19.180;2022-12-24T07:33:00;1.13;;;1.10;;
72139;SDS011;60018;49.688;19.180;2022-12-24T07:35:26;1.23;;;1.13;;
72139;SDS011;60018;49.688;19.180;2022-12-24T07:37:51;1.43;;;1.33;;
72139;SDS011;60018;49.688;19.180;2022-12-24T07:40:16;1.47;;;1.37;;
72139;SDS011;60018;49.688;19.180;2022-12-24T07:42:42;1.55;;;1.45;;
72139;SDS011;60018;49.688;19.180;2022-12-24T07:45:08;1.20;;;1.17;;
72139;SDS011;60018;49.688;19.180;2022-12-24T07:47:34;1.43;;;1.33;;
72139;SDS011;60018;49.688;19.180;2022-12-24T07:50:01;1.63;;;1.52;;
72139;SDS011;60018;49.688;19.180;2022-12-24T07:52:26;1.70;;;1.48;;
72139;SDS011;60018;49.688;19.180;2022-12-24T07:54:52;1.60;;;1.50;;
72139;SDS011;60018;49.688;19.180;2022-12-24T07:57:17;1.55;;;1.40;;
72139;SDS011;60018;49.688;19.180;2022-12-24T07:59:43;1.70;;;1.50;;
72139;SDS011;60018;49.688;19.180;2022-12-24T08:02:08;1.70;;;1.55;;
72139;SDS011;60018;49.688;19.180;2022-12-24T08:04:34;1.77;;;1.55;;
72139;SDS011;60018;49.688;19.180;2022-12-24T08:07:01;1.83;;;1.60;;
72139;SDS011;60018;49.688;19.180;2022-12-24T08:09:27;1.70;;;1.45;;
72139;SDS011;60018;49.688;19.180;2022-12-24T08:11:55;1.88;;;1.52;;
72139;SDS011;60018;49.688;19.180;2022-12-24T08:14:20;1.88;;;1.65;;
72139;SDS011;60018;49.688;19.180;2022-12-24T08:16:46;1.77;;;1.52;;
72139;SDS011;60018;49.688;19.180;2022-12-24T08:19:11;1.88;;;1.52;;
72139;SDS011;60018;49.688;19.180;2022-12-24T08:21:37;1.83;;;1.63;;
72139;SDS011;60018;49.688;19.180;2022-12-24T08:24:04;1.73;;;1.55;;
72139;SDS011;60018;49.688;19.180;2022-12-24T08:26:30;1.75;;;1.42;;
72139;SDS011;60018;49.688;19.180;2022-12-24T08:28:55;1.70;;;1.50;;
72139;SDS011;60018;49.688;19.180;2022-12-24T08:31:20;1.92;;;1.65;;
72139;SDS011;60018;49.688;19.180;2022-12-24T08:33:46;1.60;;;1.27;;
72139;SDS011;60018;49.688;19.180;2022-12-24T08:36:11;1.92;;;1.60;;
72139;SDS011;60018;49.688;19.180;2022-12-24T08:38:37;1.73;;;1.52;;
72139;SDS011;60018;49.688;19.180;2022-12-24T08:41:04;1.88;;;1.55;;
72139;SDS011;60018;49.688;19.180;2022-12-24T08:43:29;1.27;;;1.15;;
72139;SDS011;60018;49.688;19.180;2022-12-24T08:45:55;1.90;;;1.60;;
72139;SDS011;60018;49.688;19.180;2022-12-24T08:48:20;2.20;;;2.00;;
72139;SDS011;60018;49.688;19.180;2022-12-24T08:50:46;1.80;;;1.52;;
72139;SDS011;60018;49.688;19.180;2022-12-24T08:53:11;1.85;;;1.63;;
72139;SDS011;60018;49.688;19.180;2022-12-24T08:55:37;1.90;;;1.63;;
72139;SDS011;60018;49.688;19.180;2022-12-24T08:58:03;1.50;;;1.35;;
72139;SDS011;60018;49.688;19.180;2022-12-24T09:00:29;1.90;;;1.45;;
72139;SDS011;60018;49.688;19.180;2022-12-24T09:02:54;1.85;;;1.65;;
72139;SDS011;60018;49.688;19.180;2022-12-24T09:05:20;1.90;;;1.65;;
72139;SDS011;60018;49.688;19.180;2022-12-24T09:07:45;1.45;;;1.35;;
72139;SDS011;60018;49.688;19.180;2022-12-24T09:10:11;1.98;;;1.77;;
72139;SDS011;60018;49.688;19.180;2022-12-24T09:12:36;1.83;;;1.50;;
72139;SDS011;60018;49.688;19.180;2022-12-24T09:15:04;1.65;;;1.35;;
72139;SDS011;60018;49.688;19.180;2022-12-24T09:17:30;1.83;;;1.60;;
72139;SDS011;60018;49.688;19.180;2022-12-24T09:19:55;1.80;;;1.55;;
72139;SDS011;60018;49.688;19.180;2022-12-24T09:22:21;1.92;;;1.65;;
72139;SDS011;60018;49.688;19.180;2022-12-24T09:24:46;2.00;;;1.65;;
72139;SDS011;60018;49.688;19.180;2022-12-24T09:27:12;1.90;;;1.60;;
72139;SDS011;60018;49.688;19.180;2022-12-24T09:29:37;1.85;;;1.55;;
72139;SDS011;60018;49.688;19.180;2022-12-24T09:32:04;2.03;;;1.77;;
72139;SDS011;60018;49.688;19.180;2022-12-24T09:34:30;2.00;;;1.65;;
72139;SDS011;60018;49.688;19.180;2022-12-24T09:36:55;1.95;;;1.70;;
72139;SDS011;60018;49.688;19.180;2022-12-24T09:39:21;2.00;;;1.65;;
72139;SDS011;60018;49.688;19.180;2022-12-24T09:41:48;2.03;;;1.77;;
72139;SDS011;60018;49.688;19.180;2022-12-24T09:44:22;1.88;;;1.58;;
72139;SDS011;60018;49.688;19.180;2022-12-24T09:46:55;2.00;;;1.73;;
72139;SDS011;60018;49.688;19.180;2022-12-24T09:49:24;1.98;;;1.75;;
72139;SDS011;60018;49.688;19.180;2022-12-24T09:51:53;1.98;;;1.65;;
72139;SDS011;60018;49.688;19.180;2022-12-24T09:54:22;1.92;;;1.60;;
72139;SDS011;60018;49.688;19.180;2022-12-24T09:56:49;1.88;;;1.65;;
72139;SDS011;60018;49.688;19.180;2022-12-24T09:59:16;1.90;;;1.60;;
72139;SDS011;60018;49.688;19.180;2022-12-24T10:01:42;2.00;;;1.75;;
72139;SDS011;60018;49.688;19.180;2022-12-24T10:04:09;1.85;;;1.58;;
72139;SDS011;60018;49.688;19.180;2022-12-24T10:06:39;1.85;;;1.65;;
72139;SDS011;60018;49.688;19.180;2022-12-24T10:09:12;1.48;;;1.35;;
72139;SDS011;60018;49.688;19.180;2022-12-24T10:11:42;2.00;;;1.65;;
72139;SDS011;60018;49.688;19.180;2022-12-24T10:14:15;2.03;;;1.77;;
72139;SDS011;60018;49.688;19.180;2022-12-24T10:16:50;2.00;;;1.75;;
72139;SDS011;60018;49.688;19.180;2022-12-24T10:19:22;1.92;;;1.70;;
72139;SDS011;60018;49.688;19.180;2022-12-24T10:21:56;1.95;;;1.70;;
72139;SDS011;60018;49.688;19.180;2022-12-24T10:24:28;2.03;;;1.75;;
72139;SDS011;60018;49.688;19.180;2022-12-24T10:26:57;1.92;;;1.63;;
72139;SDS011;60018;49.688;19.180;2022-12-24T10:29:26;2.03;;;1.80;;
72139;SDS011;60018;49.688;19.180;2022-12-24T10:31:54;2.00;;;1.65;;
72139;SDS011;60018;49.688;19.180;2022-12-24T10:34:23;1.98;;;1.60;;
72139;SDS011;60018;49.688;19.180;2022-12-24T10:36:49;2.00;;;1.67;;
72139;SDS011;60018;49.688;19.180;2022-12-24T10:39:17;2.05;;;1.85;;
72139;SDS011;60018;49.688;19.180;2022-12-24T10:41:44;2.00;;;1.75;;
72139;SDS011;60018;49.688;19.180;2022-12-24T10:44:10;1.92;;;1.65;;
72139;SDS011;60018;49.688;19.180;2022-12-24T10:46:39;2.00;;;1.77;;
72139;SDS011;60018;49.688;19.180;2022-12-24T10:49:05;2.00;;;1.67;;
72139;SDS011;60018;49.688;19.180;2022-12-24T10:51:33;1.63;;;1.42;;
72139;SDS011;60018;49.688;19.180;2022-12-24T10:54:04;2.03;;;1.75;;
72139;SDS011;60018;49.688;19.180;2022-12-24T10:56:36;2.00;;;1.73;;
72139;SDS011;60018;49.688;19.180;2022-12-24T10:59:04;1.90;;;1.45;;
72139;SDS011;60018;49.688;19.180;2022-12-24T11:01:42;1.90;;;1.70;;
72139;SDS011;60018;49.688;19.180;2022-12-24T11:04:13;2.00;;;1.65;;
72139;SDS011;60018;49.688;19.180;2022-12-24T11:06:41;2.00;;;1.77;;
72139;SDS011;60018;49.688;19.180;2022-12-24T11:09:19;1.92;;;1.65;;
72139;SDS011;60018;49.688;19.180;2022-12-24T11:11:47;1.95;;;1.63;;
72139;SDS011;60018;49.688;19.180;2022-12-24T11:14:13;1.58;;;1.40;;
72139;SDS011;60018;49.688;19.180;2022-12-24T11:16:45;1.98;;;1.75;;
72139;SDS011;60018;49.688;19.180;2022-12-24T11:19:14;1.90;;;1.52;;
72139;SDS011;60018;49.688;19.180;2022-12-24T11:21:41;1.90;;;1.45;;
72139;SDS011;60018;49.688;19.180;2022-12-24T11:24:07;1.85;;;1.65;;
72139;SDS011;60018;49.688;19.180;2022-12-24T11:29:15;1.95;;;1.65;;
72139;SDS011;60018;49.688;19.180;2022-12-24T11:31:44;2.00;;;1.75;;
72139;SDS011;60018;49.688;19.180;2022-12-24T11:34:24;2.03;;;1.77;;
72139;SDS011;60018;49.688;19.180;2022-12-24T11:36:50;1.95;;;1.67;;
72139;SDS011;60018;49.688;19.180;2022-12-24T11:39:18;1.90;;;1.48;;
72139;SDS011;60018;49.688;19.180;2022-12-24T11:41:44;2.00;;;1.73;;
72139;SDS011;60018;49.688;19.180;2022-12-24T11:44:10;2.00;;;1.80;;
72139;SDS011;60018;49.688;19.180;2022-12-24T11:46:38;1.92;;;1.63;;
72139;SDS011;60018;49.688;19.180;2022-12-24T11:49:12;1.92;;;1.65;;
72139;SDS011;60018;49.688;19.180;2022-12-24T11:51:41;1.88;;;1.65;;
72139;SDS011;60018;49.688;19.180;2022-12-24T11:54:23;1.90;;;1.45;;
72139;SDS011;60018;49.688;19.180;2022-12-24T11:56:51;1.95;;;1.70;;
72139;SDS011;60018;49.688;19.180;2022-12-24T11:59:18;2.08;;;1.83;;
72139;SDS011;60018;49.688;19.180;2022-12-24T12:01:49;1.98;;;1.73;;
72139;SDS011;60018;49.688;19.180;2022-12-24T12:04:18;2.03;;;1.80;;
72139;SDS011;60018;49.688;19.180;2022-12-24T12:06:45;1.98;;;1.63;;
72139;SDS011;60018;49.688;19.180;2022-12-24T12:09:12;1.60;;;1.42;;
72139;SDS011;60018;49.688;19.180;2022-12-24T12:11:41;2.10;;;1.90;;
72139;SDS011;60018;49.688;19.180;2022-12-24T12:14:08;2.03;;;1.75;;
72139;SDS011;60018;49.688;19.180;2022-12-24T12:16:42;2.00;;;1.65;;
72139;SDS011;60018;49.688;19.180;2022-12-24T12:19:12;1.90;;;1.42;;
72139;SDS011;60018;49.688;19.180;2022-12-24T12:21:39;2.05;;;1.80;;
72139;SDS011;60018;49.688;19.180;2022-12-24T12:24:11;2.00;;;1.65;;
72139;SDS011;60018;49.688;19.180;2022-12-24T12:26:38;1.90;;;1.65;;
72139;SDS011;60018;49.688;19.180;2022-12-24T12:29:09;1.50;;;1.35;;
72139;SDS011;60018;49.688;19.180;2022-12-24T12:31:50;1.92;;;1.65;;
72139;SDS011;60018;49.688;19.180;2022-12-24T12:34:20;2.03;;;1.75;;
72139;SDS011;60018;49.688;19.180;2022-12-24T12:36:49;1.90;;;1.65;;
72139;SDS011;60018;49.688;19.180;2022-12-24T12:39:16;1.95;;;1.75;;
72139;SDS011;60018;49.688;19.180;2022-12-24T12:41:45;2.00;;;1.75;;
72139;SDS011;60018;49.688;19.180;2022-12-24T12:44:24;1.83;;;1.45;;
72139;SDS011;60018;49.688;19.180;2022-12-24T12:49:57;1.92;;;1.70;;
72139;SDS011;60018;49.688;19.180;2022-12-24T12:52:33;1.90;;;1.60;;
72139;SDS011;60018;49.688;19.180;2022-12-24T12:55:17;1.90;;;1.65;;
72139;SDS011;60018;49.688;19.180;2022-12-24T12:57:47;1.95;;;1.65;;
72139;SDS011;60018;49.688;19.180;2022-12-24T13:00:14;2.00;;;1.70;;
72139;SDS011;60018;49.688;19.180;2022-12-24T13:02:55;1.92;;;1.70;;
72139;SDS011;60018;49.688;19.180;2022-12-24T13:05:36;1.88;;;1.60;;
72139;SDS011;60018;49.688;19.180;2022-12-24T13:08:22;1.75;;;1.30;;
72139;SDS011;60018;49.688;19.180;2022-12-24T13:11:02;1.70;;;1.42;;
72139;SDS011;60018;49.688;19.180;2022-12-24T13:16:30;1.90;;;1.65;;
72139;SDS011;60018;49.688;19.180;2022-12-24T13:19:06;2.00;;;1.70;;
72139;SDS011;60018;49.688;19.180;2022-12-24T13:21:39;2.00;;;1.70;;
72139;SDS011;60018;49.688;19.180;2022-12-24T13:24:12;1.88;;;1.65;;
72139;SDS011;60018;49.688;19.180;2022-12-24T13:35:29;1.42;;;1.33;;
72139;SDS011;60018;49.688;19.180;2022-12-24T13:44:23;1.80;;;1.55;;
72139;SDS011;60018;49.688;19.180;2022-12-24T13:46:53;1.90;;;1.65;;
72139;SDS011;60018;49.688;19.180;2022-12-24T13:49:20;1.95;;;1.58;;
72139;SDS011;60018;49.688;19.180;2022-12-24T13:51:46;1.90;;;1.65;;
72139;SDS011;60018;49.688;19.180;2022-12-24T13:54:12;1.58;;;1.35;;
72139;SDS011;60018;49.688;19.180;2022-12-24T13:56:39;2.00;;;1.63;;
72139;SDS011;60018;49.688;19.180;2022-12-24T13:59:10;1.92;;;1.63;;
72139;SDS011;60018;49.688;19.180;2022-12-24T14:01:42;1.95;;;1.67;;
72139;SDS011;60018;49.688;19.180;2022-12-24T14:04:08;1.95;;;1.65;;
72139;SDS011;60018;49.688;19.180;2022-12-24T14:06:42;1.90;;;1.55;;
72139;SDS011;60018;49.688;19.180;2022-12-24T14:09:14;1.80;;;1.50;;
72139;SDS011;60018;49.688;19.180;2022-12-24T14:14:39;2.00;;;1.60;;
72139;SDS011;60018;49.688;19.180;2022-12-24T14:17:10;1.60;;;1.35;;
72139;SDS011;60018;49.688;19.180;2022-12-24T14:19:39;1.80;;;1.38;;
72139;SDS011;60018;49.688;19.180;2022-12-24T14:22:13;1.70;;;1.50;;
72139;SDS011;60018;49.688;19.180;2022-12-24T14:24:45;1.90;;;1.70;;
72139;SDS011;60018;49.688;19.180;2022-12-24T14:27:16;1.35;;;1.25;;
72139;SDS011;60018;49.688;19.180;2022-12-24T14:29:45;1.42;;;1.27;;
72139;SDS011;60018;49.688;19.180;2022-12-24T14:32:14;1.30;;;1.20;;
72139;SDS011;60018;49.688;19.180;2022-12-24T14:34:40;1.42;;;1.33;;
72139;SDS011;60018;49.688;19.180;2022-12-24T14:37:07;1.80;;;1.50;;
72139;SDS011;60018;49.688;19.180;2022-12-24T14:39:35;1.70;;;1.42;;
72139;SDS011;60018;49.688;19.180;2022-12-24T14:42:05;1.83;;;1.58;;
72139;SDS011;60018;49.688;19.180;2022-12-24T14:44:38;1.83;;;1.40;;
72139;SDS011;60018;49.688;19.180;2022-12-24T14:47:07;1.90;;;1.58;;
72139;SDS011;60018;49.688;19.180;2022-12-24T14:49:43;2.03;;;1.75;;
72139;SDS011;60018;49.688;19.180;2022-12-24T14:52:19;1.90;;;1.67;;
72139;SDS011;60018;49.688;19.180;2022-12-24T14:57:20;2.00;;;1.70;;
72139;SDS011;60018;49.688;19.180;2022-12-24T14:59:47;2.00;;;1.60;;
72139;SDS011;60018;49.688;19.180;2022-12-24T15:02:29;2.00;;;1.60;;
72139;SDS011;60018;49.688;19.180;2022-12-24T15:05:03;1.80;;;1.53;;
72139;SDS011;60018;49.688;19.180;2022-12-24T15:07:30;1.90;;;1.57;;
72139;SDS011;60018;49.688;19.180;2022-12-24T15:09:56;1.90;;;1.67;;
72139;SDS011;60018;49.688;19.180;2022-12-24T15:12:21;1.30;;;1.20;;